createdAt,value
2023-04-06T00:01:14.964Z,57.25
2023-04-06T00:03:46.787Z,57.90
2023-04-06T00:06:18.544Z,58.18
2023-04-06T00:08:50.609Z,58.35
2023-04-06T00:11:22.544Z,59.00
2023-04-06T00:13:58.969Z,59.27
2023-04-06T00:16:31.108Z,59.29
2023-04-06T00:19:02.972Z,58.41
2023-04-06T00:21:34.875Z,59.01
2023-04-06T00:24:06.752Z,58.36
2023-04-06T00:26:38.815Z,58.20
2023-04-06T00:29:10.937Z,58.61
2023-04-06T00:31:45.849Z,58.12
2023-04-06T00:34:17.472Z,58.75
2023-04-06T00:36:49.252Z,58.54
2023-04-06T00:39:23.958Z,58.30
2023-04-06T00:41:57.614Z,58.42
2023-04-06T00:44:29.434Z,58.76
2023-04-06T00:47:01.167Z,58.64
2023-04-06T00:49:33.735Z,59.41
2023-04-06T00:52:05.956Z,59.42
2023-04-06T00:54:40.473Z,58.78
2023-04-06T00:57:14.672Z,59.31
2023-04-06T00:59:48.190Z,59.22
2023-04-06T01:02:20.387Z,59.07
2023-04-06T01:04:58.130Z,59.66
2023-04-06T01:07:45.269Z,60.02
2023-04-06T01:10:36.387Z,59.89
2023-04-06T01:13:16.759Z,59.73
2023-04-06T01:15:58.181Z,60.07
2023-04-06T01:18:49.651Z,59.76
2023-04-06T01:21:24.907Z,59.88
2023-04-06T01:24:09.879Z,60.41
2023-04-06T01:27:04.859Z,59.88
2023-04-06T01:29:52.268Z,59.93
2023-04-06T01:32:42.947Z,59.99
2023-04-06T01:35:20.021Z,60.05
2023-04-06T01:38:02.364Z,60.42
2023-04-06T01:40:44.068Z,60.76
2023-04-06T01:43:15.847Z,60.89
2023-04-06T01:46:06.173Z,61.02
2023-04-06T01:48:42.746Z,60.88
2023-04-06T01:51:25.739Z,61.74
2023-04-06T01:54:05.458Z,61.42
2023-04-06T01:56:46.668Z,61.26
2023-04-06T01:59:32.044Z,61.37
2023-04-06T02:02:06.962Z,61.56
2023-04-06T02:04:41.746Z,61.60
2023-04-06T02:07:17.203Z,61.39
2023-04-06T02:09:56.568Z,61.37
2023-04-06T02:12:36.224Z,61.46
2023-04-06T02:15:09.930Z,61.44
2023-04-06T02:17:42.411Z,61.65
2023-04-06T02:20:15.001Z,61.01
2023-04-06T02:22:49.248Z,61.38
2023-04-06T02:25:21.148Z,61.08
2023-04-06T02:27:52.971Z,61.19
2023-04-06T02:30:24.735Z,61.45
2023-04-06T02:32:56.594Z,61.32
2023-04-06T02:35:32.823Z,61.16
2023-04-06T02:38:04.710Z,61.26
2023-04-06T02:40:36.507Z,61.33
2023-04-06T02:43:21.001Z,61.09
2023-04-06T02:45:55.935Z,60.98
2023-04-06T02:48:29.480Z,61.02
2023-04-06T02:51:04.415Z,60.77
2023-04-06T02:53:36.682Z,60.75
2023-04-06T02:56:08.805Z,61.09
2023-04-06T02:59:04.407Z,61.22
2023-04-06T03:01:40.477Z,61.21
2023-04-06T03:04:12.491Z,61.44
2023-04-06T03:06:48.029Z,61.74
2023-04-06T03:09:32.440Z,61.98
2023-04-06T03:12:09.764Z,62.11
2023-04-06T03:15:02.332Z,62.01
2023-04-06T03:17:38.829Z,62.38
2023-04-06T03:20:17.067Z,62.10
2023-04-06T03:22:51.905Z,62.35
2023-04-06T03:25:31.440Z,62.63
2023-04-06T03:28:07.084Z,62.70
2023-04-06T03:30:44.271Z,63.02
2023-04-06T03:33:20.815Z,62.98
2023-04-06T03:36:00.470Z,62.68
2023-04-06T03:38:34.588Z,62.44
2023-04-06T03:41:10.244Z,62.64
2023-04-06T03:43:47.784Z,62.84
2023-04-06T03:46:25.684Z,63.01
2023-04-06T03:49:02.990Z,63.30
2023-04-06T03:51:36.916Z,63.42
2023-04-06T03:54:08.847Z,63.20
2023-04-06T03:56:42.339Z,63.23
2023-04-06T03:59:18.123Z,63.80
2023-04-06T04:01:52.103Z,63.88
2023-04-06T04:04:23.895Z,63.71
2023-04-06T04:06:55.663Z,63.65
2023-04-06T04:09:29.728Z,63.88
2023-04-06T04:12:01.997Z,64.08
2023-04-06T04:14:40.674Z,64.36
2023-04-06T04:17:13.869Z,64.81
2023-04-06T04:19:45.570Z,64.29
2023-04-06T04:22:20.328Z,64.48
2023-04-06T04:24:52.282Z,63.99
2023-04-06T04:27:24.301Z,64.51
2023-04-06T04:29:57.557Z,64.41
2023-04-06T04:32:29.332Z,64.50
2023-04-06T04:35:04.459Z,64.36
2023-04-06T04:37:42.379Z,64.26
2023-04-06T04:40:15.521Z,63.95
2023-04-06T04:43:05.350Z,63.94
2023-04-06T04:45:39.683Z,63.88
2023-04-06T04:48:33.638Z,63.53
2023-04-06T04:51:08.200Z,63.73
2023-04-06T04:54:07.547Z,63.43
2023-04-06T04:56:39.351Z,63.66
2023-04-06T04:59:25.529Z,63.46
2023-04-06T05:02:04.103Z,63.23
2023-04-06T05:04:45.920Z,62.31
2023-04-06T05:07:25.487Z,61.85
2023-04-06T05:10:02.127Z,61.77
2023-04-06T05:12:42.551Z,60.96
2023-04-06T05:15:16.352Z,60.84
2023-04-06T05:17:54.341Z,59.13
2023-04-06T05:20:31.728Z,58.36
2023-04-06T05:23:04.417Z,57.91
2023-04-06T05:25:36.591Z,57.27
2023-04-06T05:28:19.529Z,55.30
2023-04-06T05:30:55.903Z,55.20
2023-04-06T05:33:28.466Z,54.15
2023-04-06T05:36:08.191Z,53.31
2023-04-06T05:38:47.001Z,52.79
2023-04-06T05:41:31.816Z,53.13
2023-04-06T05:44:03.435Z,51.61
2023-04-06T05:46:36.266Z,51.05
2023-04-06T05:49:10.074Z,50.55
2023-04-06T05:51:42.225Z,49.07
2023-04-06T05:54:13.899Z,48.78
2023-04-06T05:56:46.669Z,46.51
2023-04-06T05:59:18.670Z,47.32
2023-04-06T06:01:54.117Z,46.82
2023-04-06T06:04:27.059Z,45.31
2023-04-06T06:07:00.401Z,44.86
2023-04-06T06:10:04.451Z,42.74
2023-04-06T06:12:39.385Z,43.23
2023-04-06T06:15:12.156Z,43.05
2023-04-06T06:17:51.611Z,43.44
2023-04-06T06:20:23.475Z,43.30
2023-04-06T06:22:55.364Z,42.75
2023-04-06T06:25:28.490Z,41.64
2023-04-06T06:28:00.765Z,41.82
2023-04-06T06:30:38.410Z,40.43
2023-04-06T06:33:13.978Z,40.07
2023-04-06T06:35:46.027Z,40.45
2023-04-06T06:38:23.518Z,41.33
2023-04-06T06:40:59.055Z,40.86
2023-04-06T06:43:34.494Z,39.90
2023-04-06T06:46:14.746Z,38.63
2023-04-06T06:48:49.317Z,38.60
2023-04-06T06:51:21.105Z,38.85
2023-04-06T06:53:52.965Z,37.68
2023-04-06T06:56:24.721Z,37.12
2023-04-06T06:58:58.520Z,36.13
2023-04-06T07:01:30.968Z,35.82
2023-04-06T07:04:05.087Z,35.87
2023-04-06T07:06:40.156Z,35.12
2023-04-06T07:09:12.548Z,34.88
2023-04-06T07:11:45.557Z,34.12
2023-04-06T07:14:17.925Z,33.88
2023-04-06T07:16:51.664Z,33.83
2023-04-06T07:19:26.577Z,33.26
2023-04-06T07:21:58.811Z,33.60
2023-04-06T07:24:31.595Z,33.07
2023-04-06T07:27:03.945Z,32.38
2023-04-06T07:29:36.538Z,32.70
2023-04-06T07:32:11.511Z,31.89
2023-04-06T07:34:43.401Z,31.40
2023-04-06T07:37:17.975Z,31.99
2023-04-06T07:39:53.872Z,31.67
2023-04-06T07:42:26.015Z,30.63
2023-04-06T07:44:57.899Z,30.36
2023-04-06T07:47:33.194Z,29.93
2023-04-06T07:50:06.313Z,29.05
2023-04-06T07:52:38.606Z,28.78
2023-04-06T07:55:10.923Z,28.35
2023-04-06T07:57:42.608Z,28.44
2023-04-06T08:00:21.055Z,28.13
2023-04-06T08:02:55.830Z,27.60
2023-04-06T08:05:30.963Z,27.62
2023-04-06T08:08:02.823Z,26.69
2023-04-06T08:10:35.541Z,26.30
2023-04-06T08:13:09.378Z,25.58
2023-04-06T08:15:41.381Z,25.86
2023-04-06T08:18:16.508Z,26.02
2023-04-06T08:20:49.762Z,25.96
2023-04-06T08:23:21.539Z,25.87
2023-04-06T08:25:55.251Z,25.81
2023-04-06T08:28:27.380Z,25.56
2023-04-06T08:31:00.518Z,25.38
2023-04-06T08:33:33.556Z,25.21
2023-04-06T08:36:21.245Z,25.04
2023-04-06T08:38:53.467Z,24.51
2023-04-06T08:41:25.232Z,24.00
2023-04-06T08:44:02.193Z,23.79
2023-04-06T08:46:34.552Z,23.99
2023-04-06T08:49:09.325Z,24.12
2023-04-06T08:51:48.698Z,23.86
2023-04-06T08:54:20.447Z,24.21
2023-04-06T08:56:54.158Z,24.10
2023-04-06T08:59:26.816Z,23.60
2023-04-06T09:02:04.894Z,23.12
2023-04-06T09:04:38.031Z,23.68
2023-04-06T09:07:12.404Z,24.04
2023-04-06T09:09:50.585Z,22.95
2023-04-06T09:12:29.626Z,22.91
2023-04-06T09:15:02.255Z,23.10
2023-04-06T09:17:37.852Z,22.80
2023-04-06T09:20:10.431Z,23.94
2023-04-06T09:22:45.524Z,23.52
2023-04-06T09:25:22.366Z,22.47
2023-04-06T09:28:05.658Z,21.77
2023-04-06T09:30:37.562Z,22.29
2023-04-06T09:33:09.501Z,22.32
2023-04-06T09:35:50.591Z,22.55
2023-04-06T09:38:22.496Z,21.87
2023-04-06T09:41:01.375Z,22.37
2023-04-06T09:43:33.641Z,22.89
2023-04-06T09:46:05.775Z,23.19
2023-04-06T09:48:38.870Z,23.07
2023-04-06T09:51:16.047Z,22.06
2023-04-06T09:53:53.086Z,22.01
2023-04-06T09:56:28.823Z,21.88
2023-04-06T09:59:14.004Z,21.43
2023-04-06T10:01:48.467Z,22.99
2023-04-06T10:04:34.122Z,22.88
2023-04-06T10:07:16.659Z,23.00
2023-04-06T10:09:49.448Z,24.27
2023-04-06T10:12:25.735Z,24.04
2023-04-06T10:14:57.680Z,24.55
2023-04-06T10:17:29.494Z,24.55
2023-04-06T10:20:10.059Z,23.73
2023-04-06T10:23:17.026Z,22.88
2023-04-06T10:25:56.054Z,23.32
2023-04-06T10:28:36.882Z,23.09
2023-04-06T10:31:12.194Z,24.28
2023-04-06T10:33:55.753Z,23.74
2023-04-06T10:36:34.777Z,23.56
2023-04-06T10:39:07.557Z,23.70
2023-04-06T10:41:45.787Z,24.27
2023-04-06T10:44:26.927Z,24.02
2023-04-06T10:47:02.536Z,24.13
2023-04-06T10:49:34.352Z,24.46
2023-04-06T10:52:07.333Z,23.13
2023-04-06T10:54:45.093Z,22.52
2023-04-06T10:57:16.878Z,21.94
2023-04-06T10:59:48.604Z,21.84
2023-04-06T11:02:22.814Z,21.52
2023-04-06T11:04:58.442Z,21.74
2023-04-06T11:07:31.237Z,21.98
2023-04-06T11:12:38.309Z,22.36
2023-04-06T11:15:11.462Z,23.36
2023-04-06T11:17:43.539Z,23.74
2023-04-06T11:20:15.667Z,23.68
2023-04-06T11:22:52.111Z,24.07
2023-04-06T11:25:32.362Z,23.80
2023-04-06T11:28:04.215Z,24.13
2023-04-06T11:30:36.640Z,24.22
2023-04-06T11:33:08.639Z,23.80
2023-04-06T11:35:40.966Z,24.10
2023-04-06T11:38:12.801Z,24.64
2023-04-06T11:40:47.303Z,23.92
2023-04-06T11:43:19.203Z,24.77
2023-04-06T11:45:53.286Z,24.22
2023-04-06T11:48:26.532Z,27.93
2023-04-06T11:51:02.509Z,26.81
2023-04-06T11:53:46.481Z,26.42
2023-04-06T11:56:34.527Z,24.58
2023-04-06T11:59:06.286Z,24.69
2023-04-06T12:01:46.546Z,24.53
2023-04-06T12:04:18.884Z,24.88
2023-04-06T12:06:50.705Z,25.51
2023-04-06T12:09:22.532Z,25.86
2023-04-06T12:11:54.368Z,24.80
2023-04-06T12:14:26.241Z,24.77
2023-04-06T12:16:59.141Z,23.75
2023-04-06T12:22:15.478Z,23.47
2023-04-06T12:24:47.903Z,23.37
2023-04-06T12:27:20.785Z,22.89
2023-04-06T12:29:52.533Z,23.29
2023-04-06T12:32:24.288Z,25.42
2023-04-06T12:34:58.934Z,25.86
2023-04-06T12:37:31.353Z,25.93
2023-04-06T12:40:04.200Z,24.57
2023-04-06T12:42:36.112Z,26.21
2023-04-06T12:45:09.048Z,25.74
2023-04-06T12:47:40.847Z,24.72
2023-04-06T12:50:12.728Z,24.96
2023-04-06T12:52:48.470Z,26.45
2023-04-06T12:55:21.672Z,25.41
2023-04-06T12:57:53.458Z,25.37
2023-04-06T13:00:25.498Z,26.68
2023-04-06T13:02:57.446Z,24.83
2023-04-06T13:05:30.390Z,23.31
2023-04-06T13:08:03.621Z,23.20
2023-04-06T13:10:36.586Z,23.79
2023-04-06T13:13:08.382Z,24.90
2023-04-06T13:15:40.473Z,24.57
2023-04-06T13:18:12.772Z,24.48
2023-04-06T13:20:44.592Z,24.58
2023-04-06T13:23:17.061Z,25.19
2023-04-06T13:25:49.137Z,24.66
2023-04-06T13:28:20.931Z,25.73
2023-04-06T13:30:53.084Z,25.48
2023-04-06T13:33:24.840Z,24.99
2023-04-06T13:35:57.144Z,25.34
2023-04-06T13:38:29.172Z,25.83
2023-04-06T13:41:01.214Z,25.85
2023-04-06T13:43:32.968Z,25.67
2023-04-06T13:46:04.885Z,25.31
2023-04-06T13:48:36.651Z,25.79
2023-04-06T13:51:15.032Z,25.70
2023-04-06T13:56:42.000Z,26.42
2023-04-06T13:59:13.723Z,26.38
2023-04-06T14:01:46.003Z,26.77
2023-04-06T14:04:18.179Z,26.96
2023-04-06T14:06:49.922Z,26.99
2023-04-06T14:09:21.758Z,27.70
2023-04-06T14:11:54.051Z,27.50
2023-04-06T14:14:25.859Z,28.04
2023-04-06T14:16:57.915Z,27.99
2023-04-06T14:19:30.241Z,27.83
2023-04-06T14:22:01.988Z,27.63
2023-04-06T14:24:37.822Z,27.58
2023-04-06T14:27:12.549Z,27.87
2023-04-06T14:29:44.217Z,27.54
2023-04-06T14:32:16.212Z,27.63
2023-04-06T14:34:48.446Z,26.93
2023-04-06T14:37:21.618Z,26.98
2023-04-06T14:39:53.408Z,27.50
2023-04-06T14:42:26.228Z,27.54
2023-04-06T14:45:01.201Z,27.60
2023-04-06T14:47:33.134Z,27.39
2023-04-06T14:50:05.983Z,27.12
2023-04-06T14:52:38.488Z,27.36
2023-04-06T14:55:10.531Z,27.64
2023-04-06T14:57:42.229Z,27.36
2023-04-06T15:00:15.626Z,27.69
2023-04-06T15:02:49.540Z,27.77
2023-04-06T15:05:21.370Z,27.72
2023-04-06T15:07:53.053Z,27.63
2023-04-06T15:10:27.913Z,27.30
2023-04-06T15:13:06.134Z,27.46
2023-04-06T15:15:42.771Z,27.33
2023-04-06T15:18:14.488Z,27.32
2023-04-06T15:20:46.331Z,27.34
2023-04-06T15:23:18.835Z,27.45
2023-04-06T15:25:50.702Z,27.59
2023-04-06T15:28:22.943Z,27.82
2023-04-06T15:30:56.874Z,28.32
2023-04-06T15:33:29.666Z,28.59
2023-04-06T15:36:07.850Z,29.18
2023-04-06T15:38:39.639Z,29.30
2023-04-06T15:41:15.117Z,29.21
2023-04-06T15:43:47.337Z,28.79
2023-04-06T15:46:21.036Z,28.75
2023-04-06T15:48:53.780Z,28.85
2023-04-06T15:51:26.829Z,28.88
2023-04-06T15:53:58.984Z,29.12
2023-04-06T15:56:33.601Z,29.21
2023-04-06T15:59:08.361Z,29.39
2023-04-06T16:01:43.858Z,29.44
2023-04-06T16:04:15.858Z,29.58
2023-04-06T16:06:52.170Z,29.97
2023-04-06T16:09:23.972Z,29.69
2023-04-06T16:11:56.821Z,29.45
2023-04-06T16:14:31.271Z,29.68
2023-04-06T16:17:03.170Z,29.56
2023-04-06T16:19:34.965Z,30.12
2023-04-06T16:22:07.371Z,30.21
2023-04-06T16:24:39.120Z,30.49
2023-04-06T16:27:10.975Z,30.64
2023-04-06T16:29:45.210Z,30.43
2023-04-06T16:32:17.010Z,30.60
2023-04-06T16:34:48.782Z,30.38
2023-04-06T16:37:24.989Z,30.46
2023-04-06T16:39:57.219Z,30.66
2023-04-06T16:42:28.939Z,30.69
2023-04-06T16:45:01.685Z,30.73
2023-04-06T16:47:33.512Z,31.07
2023-04-06T16:50:06.650Z,30.81
2023-04-06T16:52:42.536Z,30.89
2023-04-06T16:55:16.185Z,31.43
2023-04-06T16:57:49.347Z,31.23
2023-04-06T17:00:22.878Z,30.71
2023-04-06T17:02:54.875Z,30.76
2023-04-06T17:05:27.593Z,30.61
2023-04-06T17:08:01.627Z,30.90
2023-04-06T17:10:37.284Z,31.03
2023-04-06T17:13:14.539Z,31.27
2023-04-06T17:15:46.639Z,30.88
2023-04-06T17:18:18.687Z,31.13
2023-04-06T17:20:52.467Z,30.66
2023-04-06T17:23:25.980Z,30.74
2023-04-06T17:26:08.380Z,31.25
2023-04-06T17:28:40.770Z,30.82
2023-04-06T17:31:12.800Z,30.81
2023-04-06T17:33:46.846Z,31.50
2023-04-06T17:36:20.632Z,31.43
2023-04-06T17:38:53.889Z,30.94
2023-04-06T17:41:26.633Z,31.58
2023-04-06T17:43:58.403Z,31.20
2023-04-06T17:46:30.564Z,31.14
2023-04-06T17:49:02.283Z,31.68
2023-04-06T17:51:34.130Z,32.24
2023-04-06T17:54:06.074Z,31.76
2023-04-06T17:56:42.615Z,31.98
2023-04-06T17:59:14.590Z,31.66
2023-04-06T18:01:46.443Z,31.87
2023-04-06T18:04:21.280Z,32.16
2023-04-06T18:06:53.038Z,31.78
2023-04-06T18:09:31.066Z,31.96
2023-04-06T18:12:03.369Z,31.94
2023-04-06T18:14:35.107Z,32.42
2023-04-06T18:17:06.827Z,31.92
2023-04-06T18:19:44.096Z,32.12
2023-04-06T18:22:19.664Z,32.13
2023-04-06T18:24:51.868Z,32.58
2023-04-06T18:27:26.500Z,32.18
2023-04-06T18:30:01.062Z,32.73
2023-04-06T18:32:32.875Z,32.91
2023-04-06T18:35:11.337Z,32.61
2023-04-06T18:37:43.224Z,32.96
2023-04-06T18:40:41.506Z,32.80
2023-04-06T18:43:16.238Z,33.03
2023-04-06T18:45:48.030Z,33.10
2023-04-06T18:48:19.793Z,33.74
2023-04-06T18:50:57.684Z,34.66
2023-04-06T18:53:30.814Z,34.92
2023-04-06T18:56:21.913Z,35.54
2023-04-06T18:58:54.163Z,35.20
2023-04-06T19:01:40.914Z,35.29
2023-04-06T19:04:13.215Z,35.38
2023-04-06T19:06:45.029Z,34.91
2023-04-06T19:09:16.802Z,35.32
2023-04-06T19:11:50.878Z,35.36
2023-04-06T19:14:22.653Z,35.45
2023-04-06T19:16:58.529Z,36.16
2023-04-06T19:19:30.289Z,36.17
2023-04-06T19:22:04.872Z,36.43
2023-04-06T19:24:37.057Z,35.73
2023-04-06T19:27:09.609Z,36.74
2023-04-06T19:29:41.361Z,36.47
2023-04-06T19:32:13.325Z,36.60
2023-04-06T19:34:45.189Z,36.64
2023-04-06T19:37:23.619Z,37.11
2023-04-06T19:39:55.928Z,37.71
2023-04-06T19:42:30.492Z,37.68
2023-04-06T19:45:07.719Z,37.33
2023-04-06T19:47:39.549Z,37.36
2023-04-06T19:50:11.606Z,37.40
2023-04-06T19:52:43.382Z,38.02
2023-04-06T19:55:15.062Z,38.48
2023-04-06T19:57:47.179Z,38.46
2023-04-06T20:00:22.822Z,38.95
2023-04-06T20:02:54.620Z,38.73
2023-04-06T20:05:26.427Z,39.22
2023-04-06T20:07:58.157Z,39.27
2023-04-06T20:10:29.875Z,39.98
2023-04-06T20:13:02.844Z,39.81
2023-04-06T20:15:34.635Z,40.19
2023-04-06T20:18:06.478Z,40.35
2023-04-06T20:20:39.402Z,40.85
2023-04-06T20:23:12.710Z,40.62
2023-04-06T20:25:44.745Z,41.00
2023-04-06T20:28:16.837Z,40.88
2023-04-06T20:30:52.697Z,41.46
2023-04-06T20:33:24.803Z,41.79
2023-04-06T20:36:01.244Z,41.64
2023-04-06T20:38:33.934Z,42.02
2023-04-06T20:41:07.664Z,42.01
2023-04-06T20:43:39.592Z,42.18
2023-04-06T20:46:16.283Z,42.44
2023-04-06T20:48:48.193Z,42.88
2023-04-06T20:51:24.564Z,43.33
2023-04-06T20:54:03.696Z,43.59
2023-04-06T20:56:35.432Z,43.58
2023-04-06T20:59:07.243Z,44.08
2023-04-06T21:01:40.239Z,43.82
2023-04-06T21:04:12.570Z,44.20
2023-04-06T21:06:47.488Z,44.40
2023-04-06T21:09:20.254Z,44.21
2023-04-06T21:11:52.111Z,44.27
2023-04-06T21:14:24.184Z,44.41
2023-04-06T21:16:56.319Z,44.52
2023-04-06T21:19:28.119Z,45.16
2023-04-06T21:22:00.250Z,44.96
2023-04-06T21:24:32.064Z,46.01
2023-04-06T21:27:03.854Z,45.47
2023-04-06T21:29:41.008Z,46.08
2023-04-06T21:32:21.888Z,46.27
2023-04-06T21:34:54.071Z,46.54
2023-04-06T21:37:27.242Z,46.88
2023-04-06T21:39:59.253Z,46.87
2023-04-06T21:42:31.908Z,46.95
2023-04-06T21:45:04.291Z,47.09
2023-04-06T21:47:36.470Z,47.54
2023-04-06T21:50:08.615Z,47.63
2023-04-06T21:52:40.504Z,47.64
2023-04-06T21:55:12.338Z,48.12
2023-04-06T21:57:45.042Z,47.57
2023-04-06T22:00:20.262Z,48.12
2023-04-06T22:02:52.347Z,48.54
2023-04-06T22:05:24.449Z,48.64
2023-04-06T22:08:04.339Z,48.18
2023-04-06T22:10:40.644Z,48.22
2023-04-06T22:13:13.101Z,48.94
2023-04-06T22:15:44.868Z,49.06
2023-04-06T22:18:16.669Z,49.53
2023-04-06T22:20:48.864Z,49.48
2023-04-06T22:23:23.082Z,49.65
2023-04-06T22:25:58.028Z,50.20
2023-04-06T22:28:29.743Z,50.80
2023-04-06T22:31:01.431Z,49.56
2023-04-06T22:33:33.174Z,49.15
2023-04-06T22:36:05.895Z,48.40
2023-04-06T22:38:38.107Z,48.81
2023-04-06T22:41:10.470Z,49.00
2023-04-06T22:43:42.213Z,48.63
2023-04-06T22:46:16.819Z,49.33
2023-04-06T22:48:48.544Z,48.89
2023-04-06T22:51:23.437Z,49.44
2023-04-06T22:53:54.974Z,49.61
2023-04-06T22:56:27.187Z,49.87
2023-04-06T22:59:01.755Z,50.29
2023-04-06T23:01:33.648Z,50.34
2023-04-06T23:04:05.971Z,49.99
2023-04-06T23:06:39.760Z,50.44
2023-04-06T23:09:11.566Z,50.83
2023-04-06T23:11:43.654Z,50.52
2023-04-06T23:14:16.189Z,51.12
2023-04-06T23:16:48.551Z,51.48
2023-04-06T23:19:20.551Z,51.33
2023-04-06T23:21:52.538Z,51.51
2023-04-06T23:24:28.428Z,51.76
2023-04-06T23:27:08.792Z,52.51
2023-04-06T23:29:44.499Z,52.27
2023-04-06T23:32:19.051Z,51.80
2023-04-06T23:34:51.002Z,52.59
2023-04-06T23:37:22.737Z,52.74
2023-04-06T23:39:54.432Z,53.33
2023-04-06T23:42:28.954Z,53.04
2023-04-06T23:45:05.764Z,53.54
2023-04-06T23:47:37.643Z,53.21
2023-04-06T23:50:09.753Z,52.96
2023-04-06T23:52:41.448Z,53.75
2023-04-06T23:55:13.189Z,53.85
2023-04-06T23:57:45.536Z,53.80
